Airfield :
LOGIN :

Register | Disclaimer

   EN    FR    IT 

 










Legend :    VFR   Marginal VFR   IFR   Intensive IFR   Very Intensive IFR
Visi :
Ceiling :
>= 8 km
>= 3000ft
5 to 8 km
1000 to 3000 ft
1500m to 5 km
500 to 1000 ft
800 to 1500m
200 to 500 ft
< 800m
< 200 ft
Symbols :   Thunderstorms  Fog  Heavy snow  Heavy precipitations  Wind > 20 kt
SIGMETs :     Misc.  Thunderstorms  Icing  Turbulence  Mountain Waves  Volcanic Ashes






- Airport Elevation : 16 ft
- IATA code : EAS


LESO - San Sebastian Fuenterrabia

CURRENT METAR :
  • 162130Z AUTO 23010KT 200V270 9000 -RA SCT033 BKN041 BKN058 09/06 Q1013

EXPIRED METARs :
  • 162100Z AUTO 23010KT 9999 -RA FEW036 SCT045 BKN055 09/06 Q1012
  • 162030Z 22013G24KT 190V250 9999 -RA FEW027 BKN040 09/06 Q1012
  • 162000Z 23013KT 200V260 9999 -RA BKN027 09/07 Q1012
  • 161930Z 23011KT 200V260 6000 RA BKN020 08/07 Q1012
  • 161900Z 23010KT 200V280 7000 RA SCT020 BKN030 09/07 Q1013

TAF TAF LESO
Valid from the 16 at 18:00 until the 17 at 18:00 UTC


161700Z 1618/1718 25012KT 9999 SCT020 BKN035 TX10/1712Z TN06/1706Z
TEMPO 1618/1624 3000 RA SHRA BKN020TCU
PROB30
TEMPO 1618/1621 29012G22KT 1500 +RA BKN010
PROB30
TEMPO 1700/1710 SHRA SCT025TCU
TEMPO 1710/1718 3000 RA SHRA BKN025TCU
PROB40
TEMPO 1716/1718 32012G22KT



MET'MAP, your aeronautical weather chart ! - Copyright ORBIFLY December 2007 - Disclaimer

ORBIFLY MET'MAP TEAM :

Programming & Development : Alexandra Zaïnal
Concept & Development : Baudouin d'Aumeries
Co-Development & Prog : Marc-Olivier Méhu
Technical & hardware support : Manuel Goepfert

Contact : metmap@orbifly.com




SOURCES & CREDITS :

   NOAA